Sunday, October 21, 2018, 6:16 AM GMT
Back to Local

CYHU, Saint Hubert Airport

Location: , , Canada Lat: 45.517
Local Time: 6:16 AM GMT ( 6:16 GMT) Lon: -73.417
Time Zone: GMT Elev: 88 ft

Show me the last for .
Show Decoded

2018-10-21 06:00 METAR CYHU 210600Z AUTO 28007KT 9SM BKN037 04/M02 A2971 RMK SLP062 =
2018-10-21 05:00 METAR CYHU 210500Z AUTO 30007KT 9SM CLR 03/M02 A2969 RMK SLP057 =
2018-10-21 04:00 METAR CYHU 210400Z AUTO 33009KT 9SM BKN070 BKN080 04/M02 A2967 RMK SLP049 =
2018-10-21 03:00 METAR CYHU 210300Z AUTO 32009G16KT 9SM BKN065 BKN081 05/M01 A2964 RMK SLP039 =
2018-10-21 02:00 METAR CYHU 210200Z AUTO 31009KT 9SM BKN070 OVC085 06/M00 A2961 RMK SLP030 =
2018-10-21 01:00 METAR CYHU 210100Z AUTO 30005KT 9SM BKN065 OVC087 07/M01 A2959 RMK SLP024 =
2018-10-21 00:00 METAR CYHU 210000Z AUTO 33012KT 9SM SCT080 BKN210 08/M02 A2957 RMK SLP017 =
2018-10-20 23:00 METAR CYHU 202300Z AUTO 30007KT 9SM BKN190 BKN210 09/M03 A2956 RMK SLP013 =
2018-10-20 22:00 METAR CYHU 202200Z AUTO 28012G20KT 9SM CLR 10/M02 A2953 RMK SLP001 =
2018-10-20 21:00 METAR CYHU 202100Z AUTO 26016G23KT 9SM CLR 11/02 A2949 RMK SLP990 DENSITY ALT
                 100FT =
2018-10-20 20:00 METAR CYHU 202000Z AUTO 27014G28KT 9SM CLR 12/03 A2948 RMK SLP986 DENSITY ALT
                 300FT =
2018-10-20 19:00 METAR CYHU 201900Z AUTO 26017G24KT 9SM FEW065 SCT085 12/03 A2948 RMK SLP983
                 DENSITY ALT 200FT =
2018-10-20 18:08 METAR CYHU 201808Z AUTO 27018G28KT 9SM BKN046 OVC060 11/04 A2948 RMK SLP984
                 DENSITY ALT 100FT =
2018-10-20 18:00 METAR CYHU 201800Z AUTO 26020G39KT 9SM -RA BKN044 OVC055 10/04 A2947 RMK SLP983
                 =
2018-10-20 17:57 METAR CYHU 201757Z AUTO 26021G39KT 9SM -RA BKN042 OVC055 10/04 A2947 RMK SLP983
                 =
2018-10-20 17:51 METAR CYHU 201751Z AUTO 24030G36KT 9SM OVC042 12/04 A2946 RMK SLP978 DENSITY ALT
                 200FT =
2018-10-20 17:31 METAR CYHU 201731Z AUTO 26016KT 9SM BKN044 BKN055 OVC068 12/04 A2946 RMK SLP978
                 DENSITY ALT 200FT =
2018-10-20 17:07 METAR CYHU 201707Z AUTO 27019G34KT 9SM -RA BKN048 OVC070 12/04 A2946 RMK SLP977
                 DENSITY ALT 200FT =
2018-10-20 17:00 METAR CYHU 201700Z AUTO 26020G30KT 9SM SCT048 BKN065 OVC075 12/03 A2945 RMK
                 SLP976 DENSITY ALT 200FT =
2018-10-20 16:00 METAR CYHU 201600Z AUTO 25024G35KT 9SM FEW038 SCT049 13/05 A2944 RMK SLP970
                 DENSITY ALT 300FT =
2018-10-20 15:00 METAR CYHU 201500Z AUTO 25027G37KT 9SM FEW037 OVC048 12/05 A2942 RMK SLP965
                 DENSITY ALT 200FT =
2018-10-20 14:00 METAR CYHU 201400Z AUTO 24021G32KT 9SM FEW026 BKN050 12/07 A2941 RMK SLP961
                 DENSITY ALT 200FT =
2018-10-20 13:32 METAR CYHU 201332Z AUTO 23017G31KT 9SM SCT022 SCT027 BKN055 11/07 A2941 RMK
                 SLP961 DENSITY ALT 100FT =
2018-10-20 13:13 METAR CYHU 201313Z AUTO 23021G34KT 9SM BKN022 BKN031 OVC055 10/07 A2941 RMK
                 SLP962 DENSITY ALT 100FT =
2018-10-20 13:06 METAR CYHU 201306Z AUTO 23024G34KT 9SM SCT022 BKN027 BKN033 OVC055 10/07 A2941
                 RMK SLP960 DENSITY ALT 100FT =
2018-10-20 13:04 METAR CYHU 201304Z AUTO 23022G34KT 9SM BKN022 BKN031 BKN040 OVC060 10/07 A2941
                 RMK SLP960 DENSITY ALT 100FT =
2018-10-20 13:02 METAR CYHU 201302Z AUTO 23022G34KT 9SM SCT022 BKN026 BKN033 OVC060 10/07 A2940
                 RMK SLP958 DENSITY ALT 100FT =
2018-10-20 13:00 METAR CYHU 201300Z AUTO 23019G27KT 9SM BKN022 BKN031 BKN041 OVC060 10/07 A2941
                 RMK SLP961 =
2018-10-20 12:58 METAR CYHU 201258Z AUTO 23020G28KT 9SM BKN022 BKN031 BKN041 OVC060 10/07 A2941
                 RMK SLP961 =
2018-10-20 12:19 METAR CYHU 201219Z AUTO 22019G28KT 9SM FEW040 SCT055 SCT069 BKN093 09/07 A2941
                 RMK PRESRR SLP960 =
2018-10-20 12:00 METAR CYHU 201200Z AUTO 21018G32KT 9SM -RA BKN029 BKN040 OVC049 09/07 A2940 RMK
                 PCPN 1.0MM PAST HR SLP957 =
2018-10-20 11:00 METAR CYHU 201100Z AUTO 22016G22KT 9SM -RA OVC042 11/04 A2940 RMK SLP956 DENSITY
                 ALT 100FT =
2018-10-20 10:55 METAR CYHU 201055Z AUTO 22014G19KT 9SM -RA OVC042 11/04 A2940 RMK SLP956 DENSITY
                 ALT 100FT =
2018-10-20 10:51 METAR CYHU 201051Z AUTO 21014G25KT 9SM OVC044 11/04 A2940 RMK SLP956 DENSITY ALT
                 100FT =
2018-10-20 10:02 METAR CYHU 201002Z AUTO 21014G19KT 9SM -RA OVC046 11/03 A2941 RMK SLP962 DENSITY
                 ALT 200FT =
2018-10-20 10:00 METAR CYHU 201000Z AUTO 22016KT 9SM OVC046 11/03 A2942 RMK SLP963 DENSITY ALT
                 200FT =
2018-10-20 09:07 METAR CYHU 200907Z AUTO 21015G26KT 9SM OVC048 11/03 A2943 RMK PRESFR SLP967
                 DENSITY ALT 100FT =
2018-10-20 09:00 METAR CYHU 200900Z AUTO 21022KT 9SM -RA OVC046 11/04 A2943 RMK PRESFR SLP968
                 DENSITY ALT 100FT =
2018-10-20 08:38 METAR CYHU 200838Z AUTO 20014G19KT 9SM -RA OVC046 11/03 A2944 RMK SLP972 DENSITY
                 ALT 200FT =
2018-10-20 08:00 METAR CYHU 200800Z AUTO 21015G22KT 9SM OVC050 12/03 A2946 RMK PRESFR SLP977
                 DENSITY ALT 200FT =
2018-10-20 07:10 METAR CYHU 200710Z AUTO 23025G35KT 9SM BKN050 OVC060 12/03 A2949 RMK SLP989
                 DENSITY ALT 200FT =
2018-10-20 07:00 METAR CYHU 200700Z AUTO 23013G21KT 9SM OVC060 12/04 A2950 RMK SLP993 DENSITY ALT
                 200FT =

Support USWX by starting your Amazon purchase here.